sensor_id;sensor_type;location;lat;lon;timestamp;P1;durP1;ratioP1;P2;durP2;ratioP2
7080;SDS011;3582;51.506;11.948;2022-12-10T00:01:09;34.38;;;17.65;;
7080;SDS011;3582;51.506;11.948;2022-12-10T00:03:35;45.13;;;19.85;;
7080;SDS011;3582;51.506;11.948;2022-12-10T00:06:01;42.10;;;18.92;;
7080;SDS011;3582;51.506;11.948;2022-12-10T00:08:28;42.47;;;20.20;;
7080;SDS011;3582;51.506;11.948;2022-12-10T00:10:54;34.03;;;19.70;;
7080;SDS011;3582;51.506;11.948;2022-12-10T00:13:20;48.70;;;20.03;;
7080;SDS011;3582;51.506;11.948;2022-12-10T00:15:46;32.60;;;18.47;;
7080;SDS011;3582;51.506;11.948;2022-12-10T00:18:12;37.90;;;20.97;;
7080;SDS011;3582;51.506;11.948;2022-12-10T00:20:38;35.17;;;21.40;;
7080;SDS011;3582;51.506;11.948;2022-12-10T00:23:04;35.07;;;19.83;;
7080;SDS011;3582;51.506;11.948;2022-12-10T00:25:31;40.80;;;20.85;;
7080;SDS011;3582;51.506;11.948;2022-12-10T00:27:57;34.67;;;18.92;;
7080;SDS011;3582;51.506;11.948;2022-12-10T00:30:24;37.97;;;19.00;;
7080;SDS011;3582;51.506;11.948;2022-12-10T00:32:50;33.30;;;17.98;;
7080;SDS011;3582;51.506;11.948;2022-12-10T00:35:16;34.70;;;20.25;;
7080;SDS011;3582;51.506;11.948;2022-12-10T00:37:42;29.43;;;18.53;;
7080;SDS011;3582;51.506;11.948;2022-12-10T00:40:08;38.58;;;20.63;;
7080;SDS011;3582;51.506;11.948;2022-12-10T00:42:35;32.40;;;18.17;;
7080;SDS011;3582;51.506;11.948;2022-12-10T00:45:02;41.72;;;21.40;;
7080;SDS011;3582;51.506;11.948;2022-12-10T00:47:28;35.13;;;20.10;;
7080;SDS011;3582;51.506;11.948;2022-12-10T00:49:54;31.57;;;18.20;;
7080;SDS011;3582;51.506;11.948;2022-12-10T00:52:20;37.93;;;19.50;;
7080;SDS011;3582;51.506;11.948;2022-12-10T00:54:46;37.20;;;18.48;;
7080;SDS011;3582;51.506;11.948;2022-12-10T00:57:12;43.20;;;22.53;;
7080;SDS011;3582;51.506;11.948;2022-12-10T00:59:38;28.70;;;18.10;;
7080;SDS011;3582;51.506;11.948;2022-12-10T01:02:04;33.93;;;19.67;;
7080;SDS011;3582;51.506;11.948;2022-12-10T01:04:30;37.80;;;20.23;;
7080;SDS011;3582;51.506;11.948;2022-12-10T01:06:56;34.13;;;19.67;;
7080;SDS011;3582;51.506;11.948;2022-12-10T01:09:25;38.08;;;21.13;;
7080;SDS011;3582;51.506;11.948;2022-12-10T01:11:51;36.25;;;20.30;;
7080;SDS011;3582;51.506;11.948;2022-12-10T01:14:19;40.75;;;19.90;;
7080;SDS011;3582;51.506;11.948;2022-12-10T01:16:45;31.92;;;18.98;;
7080;SDS011;3582;51.506;11.948;2022-12-10T01:19:11;42.35;;;19.92;;
7080;SDS011;3582;51.506;11.948;2022-12-10T01:21:37;38.92;;;20.45;;
7080;SDS011;3582;51.506;11.948;2022-12-10T01:24:03;41.88;;;22.30;;
7080;SDS011;3582;51.506;11.948;2022-12-10T01:26:31;36.20;;;19.65;;
7080;SDS011;3582;51.506;11.948;2022-12-10T01:28:58;40.25;;;20.25;;
7080;SDS011;3582;51.506;11.948;2022-12-10T01:33:53;35.13;;;19.90;;
7080;SDS011;3582;51.506;11.948;2022-12-10T01:36:21;38.33;;;22.85;;
7080;SDS011;3582;51.506;11.948;2022-12-10T01:38:47;38.00;;;20.75;;
7080;SDS011;3582;51.506;11.948;2022-12-10T01:41:15;41.17;;;23.33;;
7080;SDS011;3582;51.506;11.948;2022-12-10T01:43:49;36.65;;;21.73;;
7080;SDS011;3582;51.506;11.948;2022-12-10T01:46:15;47.15;;;23.10;;
7080;SDS011;3582;51.506;11.948;2022-12-10T01:48:41;43.17;;;23.30;;
7080;SDS011;3582;51.506;11.948;2022-12-10T01:51:08;39.35;;;20.50;;
7080;SDS011;3582;51.506;11.948;2022-12-10T01:53:34;41.55;;;23.95;;
7080;SDS011;3582;51.506;11.948;2022-12-10T01:56:00;42.85;;;23.52;;
7080;SDS011;3582;51.506;11.948;2022-12-10T01:58:26;48.83;;;23.10;;
7080;SDS011;3582;51.506;11.948;2022-12-10T02:01:11;36.87;;;20.30;;
7080;SDS011;3582;51.506;11.948;2022-12-10T02:06:06;44.07;;;21.33;;
7080;SDS011;3582;51.506;11.948;2022-12-10T02:08:39;44.05;;;21.38;;
7080;SDS011;3582;51.506;11.948;2022-12-10T02:11:10;42.38;;;25.15;;
7080;SDS011;3582;51.506;11.948;2022-12-10T02:13:39;44.50;;;22.38;;
7080;SDS011;3582;51.506;11.948;2022-12-10T02:18:55;35.20;;;21.60;;
7080;SDS011;3582;51.506;11.948;2022-12-10T02:21:40;38.80;;;20.52;;
7080;SDS011;3582;51.506;11.948;2022-12-10T02:24:08;43.47;;;22.48;;
7080;SDS011;3582;51.506;11.948;2022-12-10T02:26:43;43.15;;;19.55;;
7080;SDS011;3582;51.506;11.948;2022-12-10T02:31:37;38.00;;;20.48;;
7080;SDS011;3582;51.506;11.948;2022-12-10T02:34:05;39.25;;;20.30;;
7080;SDS011;3582;51.506;11.948;2022-12-10T02:36:32;36.92;;;21.55;;
7080;SDS011;3582;51.506;11.948;2022-12-10T02:39:00;43.15;;;23.45;;
7080;SDS011;3582;51.506;11.948;2022-12-10T02:41:28;43.67;;;20.55;;
7080;SDS011;3582;51.506;11.948;2022-12-10T02:43:56;34.47;;;20.67;;
7080;SDS011;3582;51.506;11.948;2022-12-10T02:46:24;34.17;;;20.35;;
7080;SDS011;3582;51.506;11.948;2022-12-10T02:48:50;40.92;;;21.98;;
7080;SDS011;3582;51.506;11.948;2022-12-10T02:51:16;41.85;;;21.42;;
7080;SDS011;3582;51.506;11.948;2022-12-10T02:53:43;47.10;;;23.40;;
7080;SDS011;3582;51.506;11.948;2022-12-10T02:58:47;45.47;;;21.80;;
7080;SDS011;3582;51.506;11.948;2022-12-10T03:04:14;40.85;;;20.77;;
7080;SDS011;3582;51.506;11.948;2022-12-10T03:06:42;40.22;;;21.77;;
7080;SDS011;3582;51.506;11.948;2022-12-10T03:09:21;44.63;;;23.90;;
7080;SDS011;3582;51.506;11.948;2022-12-10T03:11:49;45.22;;;25.27;;
7080;SDS011;3582;51.506;11.948;2022-12-10T03:14:19;42.60;;;22.85;;
7080;SDS011;3582;51.506;11.948;2022-12-10T03:16:50;44.90;;;25.02;;
7080;SDS011;3582;51.506;11.948;2022-12-10T03:19:19;40.70;;;23.77;;
7080;SDS011;3582;51.506;11.948;2022-12-10T03:21:46;46.20;;;24.42;;
7080;SDS011;3582;51.506;11.948;2022-12-10T03:24:13;50.42;;;23.83;;
7080;SDS011;3582;51.506;11.948;2022-12-10T03:26:40;52.45;;;24.25;;
7080;SDS011;3582;51.506;11.948;2022-12-10T03:29:08;44.67;;;24.42;;
7080;SDS011;3582;51.506;11.948;2022-12-10T03:31:35;48.28;;;23.92;;
7080;SDS011;3582;51.506;11.948;2022-12-10T03:34:03;47.10;;;25.45;;
7080;SDS011;3582;51.506;11.948;2022-12-10T03:36:29;40.47;;;21.80;;
7080;SDS011;3582;51.506;11.948;2022-12-10T03:38:56;37.10;;;22.13;;
7080;SDS011;3582;51.506;11.948;2022-12-10T03:41:22;50.78;;;22.17;;
7080;SDS011;3582;51.506;11.948;2022-12-10T03:43:57;42.35;;;22.17;;
7080;SDS011;3582;51.506;11.948;2022-12-10T03:46:24;32.53;;;18.90;;
7080;SDS011;3582;51.506;11.948;2022-12-10T03:48:51;39.15;;;20.98;;
7080;SDS011;3582;51.506;11.948;2022-12-10T03:51:18;34.40;;;19.98;;
7080;SDS011;3582;51.506;11.948;2022-12-10T03:53:44;34.60;;;18.98;;
7080;SDS011;3582;51.506;11.948;2022-12-10T03:56:10;40.53;;;21.40;;
7080;SDS011;3582;51.506;11.948;2022-12-10T03:58:36;41.20;;;20.92;;
7080;SDS011;3582;51.506;11.948;2022-12-10T04:01:03;37.17;;;19.27;;
7080;SDS011;3582;51.506;11.948;2022-12-10T04:03:29;41.05;;;22.30;;
7080;SDS011;3582;51.506;11.948;2022-12-10T04:06:00;43.00;;;19.87;;
7080;SDS011;3582;51.506;11.948;2022-12-10T04:08:26;39.72;;;21.05;;
7080;SDS011;3582;51.506;11.948;2022-12-10T04:10:52;45.63;;;22.53;;
7080;SDS011;3582;51.506;11.948;2022-12-10T04:13:18;41.93;;;20.07;;
7080;SDS011;3582;51.506;11.948;2022-12-10T04:16:03;47.78;;;22.48;;
7080;SDS011;3582;51.506;11.948;2022-12-10T04:18:47;40.88;;;21.90;;
7080;SDS011;3582;51.506;11.948;2022-12-10T04:21:13;46.47;;;20.93;;
7080;SDS011;3582;51.506;11.948;2022-12-10T04:23:58;42.80;;;20.02;;
7080;SDS011;3582;51.506;11.948;2022-12-10T04:26:42;46.22;;;23.52;;
7080;SDS011;3582;51.506;11.948;2022-12-10T04:29:27;39.88;;;20.35;;
7080;SDS011;3582;51.506;11.948;2022-12-10T04:31:53;46.67;;;23.90;;
7080;SDS011;3582;51.506;11.948;2022-12-10T04:34:19;50.70;;;22.02;;
7080;SDS011;3582;51.506;11.948;2022-12-10T04:36:46;46.97;;;22.52;;
7080;SDS011;3582;51.506;11.948;2022-12-10T04:39:12;51.53;;;23.73;;
7080;SDS011;3582;51.506;11.948;2022-12-10T04:41:39;47.10;;;24.48;;
7080;SDS011;3582;51.506;11.948;2022-12-10T04:44:05;46.88;;;21.40;;
7080;SDS011;3582;51.506;11.948;2022-12-10T04:46:31;51.67;;;22.57;;
7080;SDS011;3582;51.506;11.948;2022-12-10T04:48:57;60.10;;;26.27;;
7080;SDS011;3582;51.506;11.948;2022-12-10T04:51:23;49.63;;;24.47;;
7080;SDS011;3582;51.506;11.948;2022-12-10T04:53:49;51.17;;;25.10;;
7080;SDS011;3582;51.506;11.948;2022-12-10T04:56:15;45.00;;;21.58;;
7080;SDS011;3582;51.506;11.948;2022-12-10T04:58:41;42.60;;;22.23;;
7080;SDS011;3582;51.506;11.948;2022-12-10T05:01:08;53.60;;;24.13;;
7080;SDS011;3582;51.506;11.948;2022-12-10T05:03:35;48.67;;;24.08;;
7080;SDS011;3582;51.506;11.948;2022-12-10T05:06:01;49.75;;;25.65;;
7080;SDS011;3582;51.506;11.948;2022-12-10T05:08:28;54.78;;;25.77;;
7080;SDS011;3582;51.506;11.948;2022-12-10T05:10:54;55.75;;;26.05;;
7080;SDS011;3582;51.506;11.948;2022-12-10T05:13:20;55.47;;;24.40;;
7080;SDS011;3582;51.506;11.948;2022-12-10T05:15:46;52.97;;;22.67;;
7080;SDS011;3582;51.506;11.948;2022-12-10T05:18:12;58.07;;;24.27;;
7080;SDS011;3582;51.506;11.948;2022-12-10T05:20:38;54.43;;;24.50;;
7080;SDS011;3582;51.506;11.948;2022-12-10T05:23:04;54.83;;;25.88;;
7080;SDS011;3582;51.506;11.948;2022-12-10T05:25:48;54.58;;;26.13;;
7080;SDS011;3582;51.506;11.948;2022-12-10T05:28:20;65.25;;;27.75;;
7080;SDS011;3582;51.506;11.948;2022-12-10T05:30:46;61.20;;;27.45;;
7080;SDS011;3582;51.506;11.948;2022-12-10T05:33:12;64.90;;;27.77;;
7080;SDS011;3582;51.506;11.948;2022-12-10T05:35:38;61.15;;;27.10;;
7080;SDS011;3582;51.506;11.948;2022-12-10T05:38:04;61.57;;;27.13;;
7080;SDS011;3582;51.506;11.948;2022-12-10T05:40:34;61.35;;;28.35;;
7080;SDS011;3582;51.506;11.948;2022-12-10T05:43:00;64.70;;;27.00;;
7080;SDS011;3582;51.506;11.948;2022-12-10T05:45:26;66.70;;;28.17;;
7080;SDS011;3582;51.506;11.948;2022-12-10T05:47:52;58.70;;;27.55;;
7080;SDS011;3582;51.506;11.948;2022-12-10T05:50:18;63.83;;;27.67;;
7080;SDS011;3582;51.506;11.948;2022-12-10T05:52:44;62.27;;;29.43;;
7080;SDS011;3582;51.506;11.948;2022-12-10T05:55:10;64.85;;;25.88;;
7080;SDS011;3582;51.506;11.948;2022-12-10T05:57:36;61.57;;;27.20;;
7080;SDS011;3582;51.506;11.948;2022-12-10T06:00:06;57.30;;;25.70;;
7080;SDS011;3582;51.506;11.948;2022-12-10T06:02:32;60.15;;;26.83;;
7080;SDS011;3582;51.506;11.948;2022-12-10T06:04:58;69.93;;;28.63;;
7080;SDS011;3582;51.506;11.948;2022-12-10T06:07:24;65.25;;;27.63;;
7080;SDS011;3582;51.506;11.948;2022-12-10T06:09:50;61.72;;;27.83;;
7080;SDS011;3582;51.506;11.948;2022-12-10T06:12:16;60.78;;;28.40;;
7080;SDS011;3582;51.506;11.948;2022-12-10T06:14:42;63.10;;;26.65;;
7080;SDS011;3582;51.506;11.948;2022-12-10T06:17:08;57.88;;;26.92;;
7080;SDS011;3582;51.506;11.948;2022-12-10T06:19:34;64.43;;;28.20;;
7080;SDS011;3582;51.506;11.948;2022-12-10T06:22:00;55.47;;;24.60;;
7080;SDS011;3582;51.506;11.948;2022-12-10T06:24:26;59.75;;;24.77;;
7080;SDS011;3582;51.506;11.948;2022-12-10T06:26:52;62.23;;;25.77;;
7080;SDS011;3582;51.506;11.948;2022-12-10T06:29:18;69.15;;;29.77;;
7080;SDS011;3582;51.506;11.948;2022-12-10T06:31:44;56.07;;;24.93;;
7080;SDS011;3582;51.506;11.948;2022-12-10T06:34:10;56.30;;;26.43;;
7080;SDS011;3582;51.506;11.948;2022-12-10T06:36:36;55.53;;;28.00;;
7080;SDS011;3582;51.506;11.948;2022-12-10T06:39:03;57.40;;;26.45;;
7080;SDS011;3582;51.506;11.948;2022-12-10T06:41:29;57.40;;;23.67;;
7080;SDS011;3582;51.506;11.948;2022-12-10T06:43:55;56.85;;;25.70;;
7080;SDS011;3582;51.506;11.948;2022-12-10T06:46:24;52.60;;;26.05;;
7080;SDS011;3582;51.506;11.948;2022-12-10T06:48:51;49.08;;;24.40;;
7080;SDS011;3582;51.506;11.948;2022-12-10T06:51:17;55.27;;;25.50;;
7080;SDS011;3582;51.506;11.948;2022-12-10T06:53:43;58.97;;;29.10;;
7080;SDS011;3582;51.506;11.948;2022-12-10T06:56:14;55.75;;;25.98;;
7080;SDS011;3582;51.506;11.948;2022-12-10T06:58:40;60.53;;;26.92;;
7080;SDS011;3582;51.506;11.948;2022-12-10T07:01:11;48.35;;;23.27;;
7080;SDS011;3582;51.506;11.948;2022-12-10T07:03:37;53.05;;;25.73;;
7080;SDS011;3582;51.506;11.948;2022-12-10T07:06:04;48.03;;;22.35;;
7080;SDS011;3582;51.506;11.948;2022-12-10T07:08:30;44.75;;;21.10;;
7080;SDS011;3582;51.506;11.948;2022-12-10T07:10:56;45.17;;;21.45;;
7080;SDS011;3582;51.506;11.948;2022-12-10T07:13:23;52.13;;;26.45;;
7080;SDS011;3582;51.506;11.948;2022-12-10T07:15:49;54.00;;;23.90;;
7080;SDS011;3582;51.506;11.948;2022-12-10T07:18:15;48.60;;;20.83;;
7080;SDS011;3582;51.506;11.948;2022-12-10T07:20:41;47.28;;;24.35;;
7080;SDS011;3582;51.506;11.948;2022-12-10T07:23:07;42.60;;;21.50;;
7080;SDS011;3582;51.506;11.948;2022-12-10T07:25:33;37.37;;;19.63;;
7080;SDS011;3582;51.506;11.948;2022-12-10T07:27:59;47.55;;;20.58;;
7080;SDS011;3582;51.506;11.948;2022-12-10T07:30:25;45.47;;;22.87;;
7080;SDS011;3582;51.506;11.948;2022-12-10T07:32:51;42.73;;;21.33;;
7080;SDS011;3582;51.506;11.948;2022-12-10T07:35:17;49.93;;;22.53;;
7080;SDS011;3582;51.506;11.948;2022-12-10T07:37:43;45.97;;;21.17;;
7080;SDS011;3582;51.506;11.948;2022-12-10T07:40:09;45.13;;;20.70;;
7080;SDS011;3582;51.506;11.948;2022-12-10T07:42:35;46.17;;;24.60;;
7080;SDS011;3582;51.506;11.948;2022-12-10T07:45:01;49.53;;;22.93;;
7080;SDS011;3582;51.506;11.948;2022-12-10T07:47:27;51.10;;;24.30;;
7080;SDS011;3582;51.506;11.948;2022-12-10T07:49:53;41.70;;;21.07;;
7080;SDS011;3582;51.506;11.948;2022-12-10T07:52:19;43.05;;;20.17;;
7080;SDS011;3582;51.506;11.948;2022-12-10T07:54:45;41.65;;;22.95;;
7080;SDS011;3582;51.506;11.948;2022-12-10T07:57:11;47.07;;;23.20;;
7080;SDS011;3582;51.506;11.948;2022-12-10T07:59:37;46.63;;;21.40;;
7080;SDS011;3582;51.506;11.948;2022-12-10T08:02:03;40.30;;;20.13;;
7080;SDS011;3582;51.506;11.948;2022-12-10T08:04:29;37.67;;;21.37;;
7080;SDS011;3582;51.506;11.948;2022-12-10T08:06:55;39.25;;;20.55;;
7080;SDS011;3582;51.506;11.948;2022-12-10T08:09:21;47.92;;;24.17;;
7080;SDS011;3582;51.506;11.948;2022-12-10T08:11:47;42.97;;;25.37;;
7080;SDS011;3582;51.506;11.948;2022-12-10T08:14:13;48.80;;;23.17;;
7080;SDS011;3582;51.506;11.948;2022-12-10T08:16:39;41.13;;;20.23;;
7080;SDS011;3582;51.506;11.948;2022-12-10T08:19:05;36.33;;;22.00;;
7080;SDS011;3582;51.506;11.948;2022-12-10T08:21:31;40.53;;;20.83;;
7080;SDS011;3582;51.506;11.948;2022-12-10T08:23:58;39.95;;;23.20;;
7080;SDS011;3582;51.506;11.948;2022-12-10T08:26:26;46.03;;;21.63;;
7080;SDS011;3582;51.506;11.948;2022-12-10T08:28:52;42.42;;;20.67;;
7080;SDS011;3582;51.506;11.948;2022-12-10T08:31:19;36.95;;;18.70;;
7080;SDS011;3582;51.506;11.948;2022-12-10T08:33:45;39.38;;;19.27;;
7080;SDS011;3582;51.506;11.948;2022-12-10T08:36:13;33.20;;;19.80;;
7080;SDS011;3582;51.506;11.948;2022-12-10T08:38:39;47.97;;;22.02;;
7080;SDS011;3582;51.506;11.948;2022-12-10T08:41:06;37.90;;;20.08;;
7080;SDS011;3582;51.506;11.948;2022-12-10T08:43:33;45.20;;;20.77;;
7080;SDS011;3582;51.506;11.948;2022-12-10T08:45:59;40.30;;;20.95;;
7080;SDS011;3582;51.506;11.948;2022-12-10T08:48:25;44.40;;;19.57;;
7080;SDS011;3582;51.506;11.948;2022-12-10T08:50:51;41.10;;;22.93;;
7080;SDS011;3582;51.506;11.948;2022-12-10T08:53:17;34.95;;;20.20;;
7080;SDS011;3582;51.506;11.948;2022-12-10T08:55:42;40.83;;;22.10;;
7080;SDS011;3582;51.506;11.948;2022-12-10T08:58:09;38.73;;;20.97;;
7080;SDS011;3582;51.506;11.948;2022-12-10T09:00:35;42.55;;;20.30;;
7080;SDS011;3582;51.506;11.948;2022-12-10T09:03:01;39.13;;;18.67;;
7080;SDS011;3582;51.506;11.948;2022-12-10T09:05:27;41.40;;;21.75;;
7080;SDS011;3582;51.506;11.948;2022-12-10T09:07:53;36.70;;;21.30;;
7080;SDS011;3582;51.506;11.948;2022-12-10T09:10:19;35.83;;;20.10;;
7080;SDS011;3582;51.506;11.948;2022-12-10T09:12:46;42.80;;;19.20;;
7080;SDS011;3582;51.506;11.948;2022-12-10T09:15:12;42.00;;;19.00;;
7080;SDS011;3582;51.506;11.948;2022-12-10T09:17:38;35.83;;;19.48;;
7080;SDS011;3582;51.506;11.948;2022-12-10T09:20:05;38.15;;;20.65;;
7080;SDS011;3582;51.506;11.948;2022-12-10T09:22:31;40.40;;;19.80;;
7080;SDS011;3582;51.506;11.948;2022-12-10T09:24:57;38.50;;;20.42;;
7080;SDS011;3582;51.506;11.948;2022-12-10T09:27:23;32.93;;;20.03;;
7080;SDS011;3582;51.506;11.948;2022-12-10T09:29:49;35.13;;;18.27;;
7080;SDS011;3582;51.506;11.948;2022-12-10T09:32:16;30.50;;;16.75;;
7080;SDS011;3582;51.506;11.948;2022-12-10T09:34:42;36.03;;;19.53;;
7080;SDS011;3582;51.506;11.948;2022-12-10T09:37:07;36.67;;;19.17;;
7080;SDS011;3582;51.506;11.948;2022-12-10T09:39:33;36.63;;;19.60;;
7080;SDS011;3582;51.506;11.948;2022-12-10T09:46:58;35.37;;;18.00;;
7080;SDS011;3582;51.506;11.948;2022-12-10T09:49:39;38.97;;;21.10;;
7080;SDS011;3582;51.506;11.948;2022-12-10T09:52:12;45.17;;;20.73;;
7080;SDS011;3582;51.506;11.948;2022-12-10T09:57:21;36.80;;;19.63;;
7080;SDS011;3582;51.506;11.948;2022-12-10T09:59:48;41.45;;;22.20;;
7080;SDS011;3582;51.506;11.948;2022-12-10T10:04:47;37.00;;;22.13;;
7080;SDS011;3582;51.506;11.948;2022-12-10T10:07:21;38.40;;;23.30;;
7080;SDS011;3582;51.506;11.948;2022-12-10T10:09:47;36.50;;;20.55;;
7080;SDS011;3582;51.506;11.948;2022-12-10T10:12:14;54.50;;;23.15;;
7080;SDS011;3582;51.506;11.948;2022-12-10T10:14:43;41.80;;;21.05;;
7080;SDS011;3582;51.506;11.948;2022-12-10T10:17:30;46.40;;;20.73;;
7080;SDS011;3582;51.506;11.948;2022-12-10T10:19:58;42.78;;;22.23;;
7080;SDS011;3582;51.506;11.948;2022-12-10T10:22:24;53.83;;;25.40;;
7080;SDS011;3582;51.506;11.948;2022-12-10T10:24:51;44.10;;;25.98;;
7080;SDS011;3582;51.506;11.948;2022-12-10T10:27:21;46.28;;;24.52;;
7080;SDS011;3582;51.506;11.948;2022-12-10T10:29:48;47.10;;;25.42;;
7080;SDS011;3582;51.506;11.948;2022-12-10T10:32:16;42.20;;;21.75;;
7080;SDS011;3582;51.506;11.948;2022-12-10T10:34:43;50.28;;;24.02;;
7080;SDS011;3582;51.506;11.948;2022-12-10T10:37:16;50.00;;;24.27;;
7080;SDS011;3582;51.506;11.948;2022-12-10T10:39:46;35.35;;;20.35;;
7080;SDS011;3582;51.506;11.948;2022-12-10T10:42:14;42.67;;;24.50;;
7080;SDS011;3582;51.506;11.948;2022-12-10T10:44:43;49.90;;;24.38;;
7080;SDS011;3582;51.506;11.948;2022-12-10T10:47:32;48.17;;;26.08;;
7080;SDS011;3582;51.506;11.948;2022-12-10T10:49:58;64.53;;;34.85;;
7080;SDS011;3582;51.506;11.948;2022-12-10T10:52:28;56.83;;;26.92;;
7080;SDS011;3582;51.506;11.948;2022-12-10T10:54:55;42.85;;;22.90;;
7080;SDS011;3582;51.506;11.948;2022-12-10T10:57:25;41.85;;;22.92;;
7080;SDS011;3582;51.506;11.948;2022-12-10T10:59:53;48.28;;;26.35;;
7080;SDS011;3582;51.506;11.948;2022-12-10T11:04:49;45.25;;;24.25;;
7080;SDS011;3582;51.506;11.948;2022-12-10T11:07:24;55.58;;;27.75;;
7080;SDS011;3582;51.506;11.948;2022-12-10T11:09:52;39.85;;;23.75;;
7080;SDS011;3582;51.506;11.948;2022-12-10T11:12:29;47.13;;;25.60;;
7080;SDS011;3582;51.506;11.948;2022-12-10T11:14:57;42.80;;;24.67;;
7080;SDS011;3582;51.506;11.948;2022-12-10T11:17:24;45.80;;;25.27;;
7080;SDS011;3582;51.506;11.948;2022-12-10T11:22:23;55.47;;;25.58;;
7080;SDS011;3582;51.506;11.948;2022-12-10T11:24:49;77.22;;;34.83;;
7080;SDS011;3582;51.506;11.948;2022-12-10T11:27:22;45.95;;;24.63;;
7080;SDS011;3582;51.506;11.948;2022-12-10T11:32:29;43.75;;;21.35;;
7080;SDS011;3582;51.506;11.948;2022-12-10T11:35:01;42.20;;;22.90;;
7080;SDS011;3582;51.506;11.948;2022-12-10T11:37:37;43.15;;;24.40;;
7080;SDS011;3582;51.506;11.948;2022-12-10T11:40:26;53.97;;;27.77;;
7080;SDS011;3582;51.506;11.948;2022-12-10T12:01:12;53.85;;;25.15;;
7080;SDS011;3582;51.506;11.948;2022-12-10T12:06:30;79.75;;;43.67;;
7080;SDS011;3582;51.506;11.948;2022-12-10T12:09:11;54.63;;;29.90;;
7080;SDS011;3582;51.506;11.948;2022-12-10T12:14:27;46.45;;;26.05;;
7080;SDS011;3582;51.506;11.948;2022-12-10T12:17:00;50.50;;;26.73;;
7080;SDS011;3582;51.506;11.948;2022-12-10T12:19:37;58.45;;;31.23;;
7080;SDS011;3582;51.506;11.948;2022-12-10T12:22:07;57.92;;;31.00;;
7080;SDS011;3582;51.506;11.948;2022-12-10T12:24:37;59.80;;;28.73;;
7080;SDS011;3582;51.506;11.948;2022-12-10T12:30:03;63.70;;;34.25;;
7080;SDS011;3582;51.506;11.948;2022-12-10T12:37:59;53.33;;;28.58;;
7080;SDS011;3582;51.506;11.948;2022-12-10T12:40:33;38.92;;;22.63;;
7080;SDS011;3582;51.506;11.948;2022-12-10T12:43:01;42.75;;;25.35;;
7080;SDS011;3582;51.506;11.948;2022-12-10T12:45:30;42.33;;;22.75;;
7080;SDS011;3582;51.506;11.948;2022-12-10T12:48:01;50.38;;;24.27;;
7080;SDS011;3582;51.506;11.948;2022-12-10T12:50:31;51.03;;;28.67;;
7080;SDS011;3582;51.506;11.948;2022-12-10T12:52:59;54.33;;;25.80;;
7080;SDS011;3582;51.506;11.948;2022-12-10T12:58:00;54.42;;;27.98;;
7080;SDS011;3582;51.506;11.948;2022-12-10T13:00:28;53.05;;;25.73;;
7080;SDS011;3582;51.506;11.948;2022-12-10T13:05:45;43.33;;;23.20;;
7080;SDS011;3582;51.506;11.948;2022-12-10T13:13:19;53.90;;;28.90;;
7080;SDS011;3582;51.506;11.948;2022-12-10T13:15:48;53.38;;;24.80;;
7080;SDS011;3582;51.506;11.948;2022-12-10T13:20:46;43.70;;;24.80;;
7080;SDS011;3582;51.506;11.948;2022-12-10T13:33:44;50.80;;;26.00;;
7080;SDS011;3582;51.506;11.948;2022-12-10T13:36:11;46.42;;;24.83;;
7080;SDS011;3582;51.506;11.948;2022-12-10T13:38:41;45.35;;;26.58;;
7080;SDS011;3582;51.506;11.948;2022-12-10T13:41:07;50.45;;;25.85;;
7080;SDS011;3582;51.506;11.948;2022-12-10T13:43:56;40.20;;;22.33;;
7080;SDS011;3582;51.506;11.948;2022-12-10T13:49:29;43.05;;;24.85;;
7080;SDS011;3582;51.506;11.948;2022-12-10T13:51:59;41.85;;;21.50;;
7080;SDS011;3582;51.506;11.948;2022-12-10T13:59:47;47.28;;;23.17;;
7080;SDS011;3582;51.506;11.948;2022-12-10T14:07:44;61.70;;;33.55;;
7080;SDS011;3582;51.506;11.948;2022-12-10T14:10:13;46.67;;;25.33;;
7080;SDS011;3582;51.506;11.948;2022-12-10T14:12:41;47.35;;;22.02;;
7080;SDS011;3582;51.506;11.948;2022-12-10T14:15:08;46.60;;;22.58;;
7080;SDS011;3582;51.506;11.948;2022-12-10T14:17:40;42.30;;;24.25;;
7080;SDS011;3582;51.506;11.948;2022-12-10T14:20:11;38.58;;;21.38;;
7080;SDS011;3582;51.506;11.948;2022-12-10T14:22:46;41.60;;;23.45;;
7080;SDS011;3582;51.506;11.948;2022-12-10T14:25:14;44.10;;;23.10;;
7080;SDS011;3582;51.506;11.948;2022-12-10T14:27:40;47.20;;;23.30;;
7080;SDS011;3582;51.506;11.948;2022-12-10T14:32:41;45.38;;;21.35;;
7080;SDS011;3582;51.506;11.948;2022-12-10T14:35:08;38.20;;;21.98;;
7080;SDS011;3582;51.506;11.948;2022-12-10T14:37:39;45.80;;;27.08;;
7080;SDS011;3582;51.506;11.948;2022-12-10T14:40:06;50.38;;;25.65;;
7080;SDS011;3582;51.506;11.948;2022-12-10T14:42:32;40.17;;;22.48;;
7080;SDS011;3582;51.506;11.948;2022-12-10T14:45:00;38.35;;;21.33;;
7080;SDS011;3582;51.506;11.948;2022-12-10T14:47:27;43.50;;;24.10;;
7080;SDS011;3582;51.506;11.948;2022-12-10T14:49:57;51.83;;;29.42;;
7080;SDS011;3582;51.506;11.948;2022-12-10T14:52:33;43.33;;;26.00;;
7080;SDS011;3582;51.506;11.948;2022-12-10T14:55:00;47.53;;;27.23;;
7080;SDS011;3582;51.506;11.948;2022-12-10T14:57:28;45.33;;;25.80;;
7080;SDS011;3582;51.506;11.948;2022-12-10T15:00:06;42.42;;;24.80;;
7080;SDS011;3582;51.506;11.948;2022-12-10T15:02:36;52.70;;;29.33;;
7080;SDS011;3582;51.506;11.948;2022-12-10T15:05:03;44.33;;;24.17;;
7080;SDS011;3582;51.506;11.948;2022-12-10T15:07:35;44.35;;;21.40;;
7080;SDS011;3582;51.506;11.948;2022-12-10T15:10:04;40.35;;;23.17;;
7080;SDS011;3582;51.506;11.948;2022-12-10T15:15:02;40.37;;;23.00;;
7080;SDS011;3582;51.506;11.948;2022-12-10T15:17:34;38.08;;;23.52;;
7080;SDS011;3582;51.506;11.948;2022-12-10T15:20:01;43.55;;;22.00;;
7080;SDS011;3582;51.506;11.948;2022-12-10T15:22:27;42.42;;;22.75;;
7080;SDS011;3582;51.506;11.948;2022-12-10T15:24:54;41.70;;;26.15;;
7080;SDS011;3582;51.506;11.948;2022-12-10T15:27:21;45.08;;;26.90;;
7080;SDS011;3582;51.506;11.948;2022-12-10T15:29:48;44.67;;;24.15;;
7080;SDS011;3582;51.506;11.948;2022-12-10T15:32:15;40.65;;;23.30;;
7080;SDS011;3582;51.506;11.948;2022-12-10T15:34:46;44.60;;;21.95;;
7080;SDS011;3582;51.506;11.948;2022-12-10T15:37:17;65.63;;;30.10;;
7080;SDS011;3582;51.506;11.948;2022-12-10T15:39:45;41.00;;;23.88;;
7080;SDS011;3582;51.506;11.948;2022-12-10T15:42:26;59.97;;;26.85;;
7080;SDS011;3582;51.506;11.948;2022-12-10T15:44:54;56.28;;;27.92;;
7080;SDS011;3582;51.506;11.948;2022-12-10T15:47:21;58.67;;;27.40;;
7080;SDS011;3582;51.506;11.948;2022-12-10T15:49:48;95.13;;;39.05;;
7080;SDS011;3582;51.506;11.948;2022-12-10T15:52:15;48.88;;;25.73;;
7080;SDS011;3582;51.506;11.948;2022-12-10T15:54:42;53.25;;;28.30;;
7080;SDS011;3582;51.506;11.948;2022-12-10T15:57:16;45.80;;;25.75;;
7080;SDS011;3582;51.506;11.948;2022-12-10T15:59:43;46.42;;;24.80;;
7080;SDS011;3582;51.506;11.948;2022-12-10T16:04:53;38.95;;;21.85;;
7080;SDS011;3582;51.506;11.948;2022-12-10T16:07:19;43.25;;;22.58;;
7080;SDS011;3582;51.506;11.948;2022-12-10T16:09:46;47.17;;;22.37;;
7080;SDS011;3582;51.506;11.948;2022-12-10T16:12:12;55.47;;;27.63;;
7080;SDS011;3582;51.506;11.948;2022-12-10T16:14:39;51.78;;;25.25;;
7080;SDS011;3582;51.506;11.948;2022-12-10T16:17:08;48.53;;;25.08;;
7080;SDS011;3582;51.506;11.948;2022-12-10T16:19:34;46.88;;;25.27;;
7080;SDS011;3582;51.506;11.948;2022-12-10T16:22:01;48.33;;;25.92;;
7080;SDS011;3582;51.506;11.948;2022-12-10T16:24:27;62.07;;;34.00;;
7080;SDS011;3582;51.506;11.948;2022-12-10T16:26:53;52.33;;;26.27;;
7080;SDS011;3582;51.506;11.948;2022-12-10T16:29:19;39.63;;;24.53;;